createdAt,value
2022-11-21T00:00:38.846Z,100852.81
2022-11-21T00:03:43.641Z,100865.38
2022-11-21T00:06:48.386Z,100859.44
2022-11-21T00:09:53.298Z,100866.19
2022-11-21T00:12:59.572Z,100854.38
2022-11-21T00:16:09.169Z,100865.41
2022-11-21T00:19:13.844Z,100874.53
2022-11-21T00:22:18.978Z,100874.63
2022-11-21T00:25:23.912Z,100872.94
2022-11-21T00:28:30.472Z,100869.66
2022-11-21T00:31:35.194Z,100868.09
2022-11-21T00:34:40.296Z,100875.59
2022-11-21T00:37:44.985Z,100868.09
2022-11-21T00:40:49.706Z,100868.88
2022-11-21T00:43:55.949Z,100868.06
2022-11-21T00:47:00.980Z,100872.31
2022-11-21T00:50:06.968Z,100863.09
2022-11-21T00:53:11.901Z,100868.19
2022-11-21T00:56:16.905Z,100863.13
2022-11-21T00:59:23.296Z,100867.31
2022-11-21T01:02:27.926Z,100873.22
2022-11-21T01:05:34.056Z,100880.78
2022-11-21T01:08:40.965Z,100874.91
2022-11-21T01:11:45.717Z,100876.63
2022-11-21T01:14:51.723Z,100874.03
2022-11-21T01:17:56.388Z,100869.00
2022-11-21T01:21:01.847Z,100873.22
2022-11-21T01:24:07.396Z,100874.88
2022-11-21T01:27:12.736Z,100883.28
2022-11-21T01:30:18.971Z,100874.06
2022-11-21T01:33:23.623Z,100881.59
2022-11-21T01:36:30.565Z,100884.91
2022-11-21T01:39:35.509Z,100882.41
2022-11-21T01:42:54.299Z,100874.88
2022-11-21T01:46:02.797Z,100894.22
2022-11-21T01:49:11.002Z,100897.56
2022-11-21T01:52:20.662Z,100891.69
2022-11-21T01:55:25.374Z,100897.53
2022-11-21T01:58:31.001Z,100904.22
2022-11-21T02:01:38.101Z,100902.47
2022-11-21T02:04:44.370Z,100910.06
2022-11-21T02:07:50.553Z,100919.25
2022-11-21T02:11:05.602Z,100926.00
2022-11-21T02:14:13.077Z,100928.59
2022-11-21T02:17:21.129Z,100935.28
2022-11-21T02:20:27.850Z,100930.28
2022-11-21T02:23:39.581Z,100932.78
2022-11-21T02:26:47.449Z,100929.50
2022-11-21T02:29:52.161Z,100936.19
2022-11-21T02:32:57.309Z,100933.69
2022-11-21T02:36:03.601Z,100933.66
2022-11-21T02:39:10.709Z,100937.00
2022-11-21T02:42:23.157Z,100934.50
2022-11-21T02:45:33.121Z,100942.06
2022-11-21T02:48:38.881Z,100942.88
2022-11-21T02:51:43.807Z,100943.78
2022-11-21T02:54:48.478Z,100944.63
2022-11-21T02:57:55.809Z,100944.56
2022-11-21T03:01:01.819Z,100952.16
2022-11-21T03:04:07.117Z,100946.31
2022-11-21T03:07:12.658Z,100947.97
2022-11-21T03:10:18.465Z,100952.19
2022-11-21T03:13:24.628Z,100953.84
2022-11-21T03:16:29.513Z,100953.03
2022-11-21T03:19:34.120Z,100948.00
2022-11-21T03:22:38.910Z,100960.59
2022-11-21T03:25:43.518Z,100950.53
2022-11-21T03:28:49.693Z,100948.81
2022-11-21T03:31:54.286Z,100959.75
2022-11-21T03:34:58.937Z,100970.63
2022-11-21T03:38:03.501Z,100966.41
2022-11-21T03:41:28.550Z,100963.09
2022-11-21T03:44:34.842Z,100963.09
2022-11-21T03:47:39.501Z,100958.88
2022-11-21T03:50:44.864Z,100970.66
2022-11-21T03:53:50.224Z,100968.97
2022-11-21T03:56:54.798Z,100964.81
2022-11-21T04:00:00.825Z,100978.28
2022-11-21T04:03:05.581Z,100980.81
2022-11-21T04:06:11.792Z,100985.00
2022-11-21T04:09:16.435Z,100982.44
2022-11-21T04:12:21.059Z,100982.50
2022-11-21T04:15:27.030Z,100980.78
2022-11-21T04:18:31.861Z,100980.78
2022-11-21T04:21:36.433Z,100977.41
2022-11-21T04:24:41.049Z,100986.59
2022-11-21T04:27:45.613Z,100984.19
2022-11-21T04:30:54.864Z,100981.72
2022-11-21T04:34:00.550Z,100987.63
2022-11-21T04:37:08.893Z,100975.88
2022-11-21T04:40:17.009Z,100977.53
2022-11-21T04:43:22.041Z,100970.78
2022-11-21T04:46:28.256Z,100968.19
2022-11-21T04:49:32.869Z,100969.09
2022-11-21T04:52:37.785Z,100971.63
2022-11-21T04:55:42.949Z,100973.31
2022-11-21T04:58:47.590Z,100972.47
2022-11-21T05:01:53.566Z,100978.34
2022-11-21T05:04:58.285Z,100976.69
2022-11-21T05:08:03.294Z,100990.94
2022-11-21T05:11:25.153Z,100985.97
2022-11-21T05:14:29.980Z,100979.31
2022-11-21T05:17:36.153Z,100986.00
2022-11-21T05:20:40.880Z,100980.94
2022-11-21T05:23:45.496Z,100983.47
2022-11-21T05:26:50.256Z,100979.28
2022-11-21T05:29:55.445Z,100990.25
2022-11-21T05:33:01.570Z,100994.44
2022-11-21T05:36:06.729Z,100986.03
2022-11-21T05:39:11.365Z,100991.06
2022-11-21T05:42:15.987Z,100995.31
2022-11-21T05:45:20.021Z,100993.63
2022-11-21T05:48:26.353Z,100988.66
2022-11-21T05:51:31.045Z,100988.66
2022-11-21T05:54:35.804Z,100992.03
2022-11-21T05:57:40.701Z,100999.56
2022-11-21T06:00:45.326Z,101003.78
2022-11-21T06:03:50.373Z,101000.47
2022-11-21T06:06:54.977Z,101014.72
2022-11-21T06:09:59.959Z,101008.81
2022-11-21T06:13:21.966Z,101004.50
2022-11-21T06:16:26.764Z,101013.81
2022-11-21T06:19:32.786Z,101004.63
2022-11-21T06:22:37.705Z,101005.41
2022-11-21T06:25:43.021Z,101015.53
2022-11-21T06:28:48.247Z,101011.34
2022-11-21T06:31:53.169Z,101017.09
2022-11-21T06:34:59.626Z,101008.75
2022-11-21T06:38:04.268Z,101025.59
2022-11-21T06:41:12.010Z,101015.47
2022-11-21T06:44:16.628Z,101023.72
2022-11-21T06:47:21.592Z,101015.44
2022-11-21T06:50:28.272Z,101016.34
2022-11-21T06:53:32.978Z,101018.06
2022-11-21T06:56:37.813Z,101020.63
2022-11-21T06:59:43.103Z,101019.78
2022-11-21T07:02:47.800Z,101021.44
2022-11-21T07:05:58.501Z,101013.88
2022-11-21T07:09:31.787Z,101015.56
2022-11-21T07:12:45.157Z,101016.44
2022-11-21T07:15:52.032Z,101009.69
2022-11-21T07:18:56.633Z,101014.78
2022-11-21T07:22:02.588Z,101019.81
2022-11-21T07:25:08.267Z,101019.84
2022-11-21T07:28:14.457Z,101022.41
2022-11-21T07:31:19.130Z,101020.69
2022-11-21T07:34:23.761Z,101024.91
2022-11-21T07:37:30.079Z,101026.59
2022-11-21T07:40:34.910Z,101026.66
2022-11-21T07:43:39.530Z,101039.25
2022-11-21T07:46:44.206Z,101035.94
2022-11-21T07:49:49.213Z,101046.84
2022-11-21T07:52:59.560Z,101046.00
2022-11-21T07:56:04.909Z,101061.19
2022-11-21T07:59:09.757Z,101055.28
2022-11-21T08:02:20.464Z,101074.53
2022-11-21T08:05:25.481Z,101071.13
2022-11-21T08:08:32.336Z,101071.16
2022-11-21T08:11:38.152Z,101066.13
2022-11-21T08:14:43.141Z,101064.38
2022-11-21T08:17:48.054Z,101080.41
2022-11-21T08:20:52.706Z,101078.66
2022-11-21T08:23:58.656Z,101076.91
2022-11-21T08:27:03.567Z,101081.09
2022-11-21T08:30:10.623Z,101079.47
2022-11-21T08:33:15.276Z,101088.69
2022-11-21T08:36:19.916Z,101079.44
2022-11-21T08:39:26.542Z,101081.16
2022-11-21T08:42:31.504Z,101081.97
2022-11-21T08:45:37.591Z,101078.59
2022-11-21T08:48:42.206Z,101078.72
2022-11-21T08:51:49.370Z,101084.50
2022-11-21T08:54:55.513Z,101092.84
2022-11-21T08:58:00.284Z,101085.22
2022-11-21T09:01:05.087Z,101086.00
2022-11-21T09:04:10.246Z,101087.69
2022-11-21T09:07:14.859Z,101100.06
2022-11-21T09:10:20.920Z,101087.72
2022-11-21T09:13:25.620Z,101091.84
2022-11-21T09:16:48.084Z,101086.91
2022-11-21T09:19:52.651Z,101090.31
2022-11-21T09:22:57.300Z,101078.56
2022-11-21T09:26:03.283Z,101087.69
2022-11-21T09:29:10.988Z,101086.09
2022-11-21T09:32:15.633Z,101078.47
2022-11-21T09:35:20.485Z,101071.84
2022-11-21T09:38:26.630Z,101083.63
2022-11-21T09:41:53.923Z,101079.47
2022-11-21T09:45:09.374Z,101083.66
2022-11-21T09:48:17.209Z,101065.16
2022-11-21T09:51:23.049Z,101087.88
2022-11-21T09:54:33.270Z,101077.75
2022-11-21T09:57:39.655Z,101081.03
2022-11-21T10:00:44.331Z,101089.31
2022-11-21T10:03:52.481Z,101069.31
2022-11-21T10:07:04.106Z,101073.56
2022-11-21T10:10:26.417Z,101066.91
2022-11-21T10:13:57.870Z,101066.06
2022-11-21T10:17:14.608Z,101064.41
2022-11-21T10:20:33.534Z,101063.59
2022-11-21T10:24:02.086Z,101072.75
2022-11-21T10:27:13.492Z,101069.25
2022-11-21T10:30:21.996Z,101060.09
2022-11-21T10:33:32.741Z,101065.13
2022-11-21T10:36:39.431Z,101058.38
2022-11-21T10:39:46.855Z,101058.03
2022-11-21T10:42:56.287Z,101062.00
2022-11-21T10:46:01.308Z,101062.72
2022-11-21T10:49:08.187Z,101063.69
2022-11-21T10:52:20.219Z,101046.13
2022-11-21T10:55:24.876Z,101051.09
2022-11-21T10:58:42.709Z,101048.75
2022-11-21T11:01:56.714Z,101042.06
2022-11-21T11:05:29.361Z,101041.28
2022-11-21T11:08:52.632Z,101051.25
2022-11-21T11:12:24.897Z,101046.31
2022-11-21T11:15:29.680Z,101043.78
2022-11-21T11:18:38.697Z,101042.22
2022-11-21T11:21:45.691Z,101046.50
2022-11-21T11:24:59.074Z,101029.69
2022-11-21T11:28:09.225Z,101035.56
2022-11-21T11:31:14.465Z,101029.63
2022-11-21T11:34:20.941Z,101027.97
2022-11-21T11:37:40.444Z,101013.69
2022-11-21T11:40:46.639Z,101007.84
2022-11-21T11:44:18.802Z,101017.13
2022-11-21T11:47:32.434Z,101016.34
2022-11-21T11:50:42.329Z,101013.84
2022-11-21T11:53:51.172Z,101012.94
2022-11-21T11:56:55.840Z,101016.38
2022-11-21T12:00:10.331Z,101003.84
2022-11-21T12:03:21.168Z,101006.31
2022-11-21T12:07:04.102Z,101011.38
2022-11-21T12:10:00.701Z,101002.13
2022-11-21T12:13:11.295Z,101001.34
2022-11-21T12:16:16.189Z,101002.16
2022-11-21T12:19:21.101Z,100997.91
2022-11-21T12:22:27.189Z,101006.31
2022-11-21T12:25:37.812Z,100995.34
2022-11-21T12:28:53.838Z,100996.22
2022-11-21T12:32:16.039Z,100991.19
2022-11-21T12:35:39.858Z,100994.50
2022-11-21T12:39:11.867Z,100994.44
2022-11-21T12:42:39.215Z,100991.94
2022-11-21T12:45:50.449Z,100985.31
2022-11-21T12:49:13.573Z,100977.81
2022-11-21T12:52:42.086Z,100975.28
2022-11-21T12:55:48.552Z,100980.31
2022-11-21T12:58:55.069Z,100981.16
2022-11-21T13:02:06.772Z,100977.75
2022-11-21T13:05:25.664Z,100976.13
2022-11-21T13:08:32.801Z,100969.38
2022-11-21T13:12:07.201Z,100966.88
2022-11-21T13:15:23.304Z,100966.09
2022-11-21T13:18:31.504Z,100966.91
2022-11-21T13:21:43.643Z,100961.00
2022-11-21T13:24:59.918Z,100964.38
2022-11-21T13:28:36.482Z,100956.91
2022-11-21T13:31:41.841Z,100951.75
2022-11-21T13:34:46.509Z,100959.22
2022-11-21T13:38:02.958Z,100954.25
2022-11-21T13:41:26.631Z,100953.44
2022-11-21T13:44:41.369Z,100951.69
2022-11-21T13:48:18.879Z,100947.53
2022-11-21T13:51:46.940Z,100945.78
2022-11-21T13:55:26.474Z,100946.59
2022-11-21T13:58:45.073Z,100953.34
2022-11-21T14:02:19.297Z,100956.72
2022-11-21T14:05:48.764Z,100957.56
2022-11-21T14:09:25.894Z,100960.91
2022-11-21T14:12:35.375Z,100964.31
2022-11-21T14:15:49.273Z,100953.41
2022-11-21T14:18:55.912Z,100957.66
2022-11-21T14:22:01.889Z,100957.63
2022-11-21T14:25:11.501Z,100960.94
2022-11-21T14:28:22.118Z,100953.44
2022-11-21T14:31:26.700Z,100967.63
2022-11-21T14:34:33.984Z,100960.00
2022-11-21T14:37:42.316Z,100947.28
2022-11-21T14:40:47.142Z,100945.66
2022-11-21T14:43:52.372Z,100948.16
2022-11-21T14:47:09.784Z,100941.47
2022-11-21T14:50:28.418Z,100940.72
2022-11-21T14:53:34.060Z,100941.56
2022-11-21T14:56:39.026Z,100944.88
2022-11-21T14:59:44.782Z,100951.47
2022-11-21T15:02:51.791Z,100935.50
2022-11-21T15:06:06.371Z,100945.56
2022-11-21T15:10:25.948Z,100948.94
2022-11-21T15:12:52.141Z,100953.13
2022-11-21T15:15:57.404Z,100947.13
2022-11-21T15:19:02.421Z,100942.13
2022-11-21T15:22:08.579Z,100941.38
2022-11-21T15:25:19.935Z,100929.59
2022-11-21T15:28:24.912Z,100929.63
2022-11-21T15:31:29.813Z,100934.66
2022-11-21T15:34:36.105Z,100948.91
2022-11-21T15:37:50.067Z,100952.31
2022-11-21T15:41:29.500Z,100949.78
2022-11-21T15:44:34.569Z,100962.44
2022-11-21T15:47:39.170Z,100952.28
2022-11-21T15:50:43.807Z,100952.28
2022-11-21T15:53:49.820Z,100944.00
2022-11-21T15:56:54.870Z,100947.34
2022-11-21T15:59:59.586Z,100944.84
2022-11-21T16:03:04.494Z,100951.56
2022-11-21T16:06:12.299Z,100954.16
2022-11-21T16:09:18.509Z,100955.03
2022-11-21T16:12:23.177Z,100965.84
2022-11-21T16:15:27.827Z,100965.84
2022-11-21T16:18:32.902Z,100978.47
2022-11-21T16:21:38.305Z,100970.91
2022-11-21T16:24:44.488Z,100970.91
2022-11-21T16:27:49.180Z,100970.03
2022-11-21T16:30:53.882Z,100965.00
2022-11-21T16:33:59.379Z,100962.56
2022-11-21T16:37:07.263Z,100954.16
2022-11-21T16:40:15.849Z,100954.94
2022-11-21T16:43:20.409Z,100946.59
2022-11-21T16:46:26.280Z,100949.13
2022-11-21T16:49:31.276Z,100947.50
2022-11-21T16:52:36.687Z,100941.50
2022-11-21T16:55:42.759Z,100947.38
2022-11-21T16:58:47.671Z,100941.44
2022-11-21T17:01:52.620Z,100934.75
2022-11-21T17:04:57.281Z,100936.41
2022-11-21T17:08:02.036Z,100923.84
2022-11-21T17:11:15.445Z,100921.31
2022-11-21T17:14:20.111Z,100914.56
2022-11-21T17:17:24.763Z,100921.28
2022-11-21T17:20:29.703Z,100912.84
2022-11-21T17:23:35.011Z,100918.78
2022-11-21T17:26:41.151Z,100927.22
2022-11-21T17:29:45.758Z,100919.69
2022-11-21T17:32:50.465Z,100918.84
2022-11-21T17:35:55.722Z,100919.69
2022-11-21T17:39:00.592Z,100920.56
2022-11-21T17:42:06.849Z,100922.28
2022-11-21T17:45:12.324Z,100922.31
2022-11-21T17:48:17.384Z,100930.69
2022-11-21T17:51:23.869Z,100928.22
2022-11-21T17:54:28.748Z,100933.25
2022-11-21T17:57:34.874Z,100936.63
2022-11-21T18:00:39.909Z,100950.06
2022-11-21T18:03:44.549Z,100944.13
2022-11-21T18:06:49.345Z,100944.97
2022-11-21T18:09:54.197Z,100944.09
2022-11-21T18:13:00.324Z,100939.91
2022-11-21T18:16:08.191Z,100932.28
2022-11-21T18:19:14.907Z,100951.63
2022-11-21T18:22:22.564Z,100940.69
2022-11-21T18:25:29.824Z,100934.78
2022-11-21T18:28:36.272Z,100936.50
2022-11-21T18:31:42.784Z,100931.44
2022-11-21T18:34:47.549Z,100936.44
2022-11-21T18:37:52.351Z,100940.63
2022-11-21T18:40:56.969Z,100935.59
2022-11-21T18:44:04.587Z,100946.59
2022-11-21T18:47:19.973Z,100939.00
2022-11-21T18:50:25.737Z,100936.47
2022-11-21T18:53:30.585Z,100926.41
2022-11-21T18:56:36.286Z,100928.06
2022-11-21T18:59:42.288Z,100934.75
2022-11-21T19:02:48.008Z,100928.88
2022-11-21T19:05:52.728Z,100925.56
2022-11-21T19:08:59.168Z,100919.75
2022-11-21T19:12:04.089Z,100932.34
2022-11-21T19:15:11.776Z,100927.31
2022-11-21T19:18:16.365Z,100934.91
2022-11-21T19:21:21.102Z,100923.16
2022-11-21T19:24:25.781Z,100923.16
2022-11-21T19:27:30.519Z,100925.66
2022-11-21T19:30:37.476Z,100918.09
2022-11-21T19:33:42.372Z,100917.25
2022-11-21T19:36:47.254Z,100924.00
2022-11-21T19:39:52.134Z,100920.66
2022-11-21T19:42:56.727Z,100916.44
2022-11-21T19:46:05.486Z,100922.38
2022-11-21T19:49:12.447Z,100923.22
2022-11-21T19:52:17.182Z,100928.28
2022-11-21T19:55:21.994Z,100919.03
2022-11-21T19:58:27.526Z,100919.06
2022-11-21T20:01:35.151Z,100918.19
2022-11-21T20:04:40.237Z,100919.91
2022-11-21T20:07:45.080Z,100918.22
2022-11-21T20:10:49.732Z,100930.00
2022-11-21T20:13:55.221Z,100936.72
2022-11-21T20:17:01.494Z,100939.28
2022-11-21T20:20:07.570Z,100937.59
2022-11-21T20:23:13.277Z,100948.53
2022-11-21T20:26:19.241Z,100947.66
2022-11-21T20:29:24.692Z,100940.13
2022-11-21T20:32:32.384Z,100944.34
2022-11-21T20:35:39.193Z,100955.31
2022-11-21T20:38:44.007Z,100957.78
2022-11-21T20:41:49.228Z,100956.97
2022-11-21T20:48:20.516Z,100952.78
2022-11-21T20:54:50.691Z,100962.03
2022-11-21T20:57:55.429Z,100950.22
2022-11-21T21:01:00.141Z,100962.00
2022-11-21T21:04:06.331Z,100962.88
2022-11-21T21:07:11.868Z,100967.91
2022-11-21T21:10:17.769Z,100957.00
2022-11-21T21:13:22.386Z,100957.84
2022-11-21T21:16:30.544Z,100948.56
2022-11-21T21:19:36.817Z,100961.19
2022-11-21T21:22:41.722Z,100960.38
2022-11-21T21:25:46.450Z,100966.28
2022-11-21T21:28:51.693Z,100980.56
2022-11-21T21:31:56.605Z,100979.75
2022-11-21T21:35:02.725Z,100973.84
2022-11-21T21:38:09.077Z,100973.84
2022-11-21T21:41:16.052Z,100975.53
2022-11-21T21:44:21.164Z,100981.41
2022-11-21T21:47:25.813Z,100978.88
2022-11-21T21:50:31.820Z,100994.03
2022-11-21T21:53:38.359Z,100978.88
2022-11-21T21:56:43.114Z,100973.03
2022-11-21T21:59:47.702Z,100977.22
2022-11-21T22:02:52.282Z,100983.09
2022-11-21T22:06:02.420Z,100993.22
2022-11-21T22:09:07.537Z,100992.38
2022-11-21T22:12:13.440Z,100978.06
2022-11-21T22:15:18.032Z,100989.00
2022-11-21T22:18:22.803Z,100983.94
2022-11-21T22:21:32.504Z,100978.91
2022-11-21T22:24:39.342Z,100983.09
2022-11-21T22:27:44.120Z,100978.84
2022-11-21T22:30:55.824Z,100981.41
2022-11-21T22:34:00.980Z,100980.56
2022-11-21T22:37:07.116Z,100989.81
2022-11-21T22:40:13.998Z,100987.28
2022-11-21T22:43:20.041Z,100998.25
2022-11-21T22:46:27.085Z,100988.16
2022-11-21T22:49:31.777Z,100996.56
2022-11-21T22:52:38.209Z,100995.72
2022-11-21T22:55:43.070Z,100980.56
2022-11-21T22:58:48.540Z,100988.97
2022-11-21T23:01:53.280Z,100996.53
2022-11-21T23:04:57.919Z,100998.22
2022-11-21T23:08:03.994Z,100995.69
2022-11-21T23:11:11.298Z,100983.09
2022-11-21T23:14:15.947Z,101001.56
2022-11-21T23:17:21.537Z,100998.25
2022-11-21T23:20:26.398Z,100998.19
2022-11-21T23:23:32.809Z,100999.06
2022-11-21T23:26:37.999Z,100999.09
2022-11-21T23:29:42.651Z,100997.41
2022-11-21T23:32:47.484Z,101001.59
2022-11-21T23:35:52.468Z,100999.06
2022-11-21T23:38:58.814Z,101006.63
2022-11-21T23:42:03.498Z,101005.78
2022-11-21T23:45:10.058Z,101010.84
2022-11-21T23:48:15.135Z,101003.28
2022-11-21T23:51:19.951Z,101004.09
2022-11-21T23:54:25.974Z,101010.81
2022-11-21T23:57:30.593Z,101004.97
